Nearby METAR Reports

 

CYUL - Montreal/Dorval, Quebec, Canada
Distance from station: ENE 6km
Updated: 01/20/2022 21:00 EST
Clear
Clear
 Wind from WSW
Wind: WSW 13 km/h
Temperature: -21°C
Wind Chill: -29°C
Dew Point: -25°C
Humidity: 70%
Barometer: 1033.5 hPa
Clouds: Clear
Visibility: 24 km
2022/01/21 02:00 CYUL 210200Z 24007KT 15SM SKC M21/M25 A3052 RMK SLP340
CWVQ - Ste Anne De Bell, Quebec, Canada
Distance from station: WSW 10km
Updated: 01/20/2022 21:00 EST

 Wind from WSW
Wind: WSW 7 km/h
Temperature: -20°C
Wind Chill: -26°C
Dew Point: -25°C
Humidity: 65%
2022/01/21 02:00 CWVQ 210200Z AUTO 24004KT M20/M25 RMK AO1 2PAST HR SOG 23 3030 SLP342 P0001 T12041246 50002
 
CWTA - Mc Tavish (aut), Quebec, Canada
Distance from station: ENE 18km
Updated: 01/20/2022 21:00 EST

 Wind from WNW
Wind: WNW 6 km/h
Temperature: -18°C
Dew Point: -23°C
Humidity: 65%
2022/01/21 02:00 CWTA 210200Z AUTO 30003KT M18/M23 RMK AO1 SOG 52 3030 SLP333 T11771230
CYMX - Montreal/Mirabel, Quebec, Canada
Distance from station: NW 29km
Updated: 01/20/2022 21:00 EST
Few Clouds
Few Clouds
 Wind from varies
Wind: varies 9 km/h
Temperature: -20°C
Wind Chill: -27°C
Dew Point: -25°C
Humidity: 65%
Barometer: 1032.5 hPa
Clouds: Few Clouds
Visibility: 40 km
Cloud details: Few Clouds 7620 m
2022/01/21 02:00 CYMX 210200Z VRB05KT 25SM FEW250 M20/M25 A3049 RMK CI1 CI TR SLP337
 
CYHU - Saint Hubert Arp, Quebec, Canada
Distance from station: ENE 31km
Updated: 01/20/2022 21:00 EST
Overcast
Overcast
 Wind from W
Wind: W 15 km/h
Temperature: -16°C
Wind Chill: -24°C
Dew Point: -22°C
Humidity: 60%
Barometer: 1032.8 hPa
Clouds: Overcast
Visibility: 14 km
Cloud details: Overcast 1036 m
2022/01/21 02:00 CYHU 210200Z AUTO 28008KT 9SM OVC034 M16/M22 A3050 RMK SLP334
CWIT - St Clothilde (a, Quebec, Canada
Distance from station: SSE 33km
Updated: 01/20/2022 21:00 EST

 Wind from W
Wind: W 11 km/h
Temperature: -19°C
Wind Chill: -26°C
Dew Point: -24°C
Humidity: 65%
2022/01/21 02:00 CWIT 210200Z AUTO 27006KT M19/M24 RMK AO1 SOG 23 3026 SLP336 T11881239
 
CWIZ - L'acadie, Quebec, Canada
Distance from station: ESE 41km
Updated: 01/20/2022 21:00 EST

 Wind from W
Wind: W 11 km/h
Temperature: -20°C
Wind Chill: -28°C
Dew Point: -22°C
Humidity: 84%
2022/01/21 02:00 CWIZ 210200Z AUTO 27006KT M20/M22 RMK AO1 SOG 30 T11961215
CWHM - Varennes, Quebec, Canada
Distance from station: NE 45km
Updated: 10/25/2016 10:00 EDT
NOT Current

 Wind from W
Wind: W 19 km/h, Gust: 28 km/h
Temperature: 4°C
Wind Chill: 0°C
Dew Point: -2°C
Humidity: 65%
2016/10/25 14:00 CWHM 251400Z AUTO 28010G15KT 04/M02 RMK AO1 PK WND 28018/1302 T00391017
 
CWEW - L'assomption, Quebec, Canada
Distance from station: NE 50km
Updated: 01/20/2022 21:00 EST

 Wind from W
Wind: W 2 km/h
Temperature: -22°C
Dew Point: -24°C
Humidity: 84%
2022/01/21 02:00 CWEW 210200Z AUTO 28001KT M22/M24 RMK AO1 SOG 19 3034 SLP341 T12191238
CWBZ - St Anicet, Quebec, Canada
Distance from station: SW 52km
Updated: 01/20/2022 21:00 EST

 Wind from WSW
Wind: WSW 9 km/h
Temperature: -22°C
Wind Chill: -29°C
Dew Point: -26°C
Humidity: 70%
2022/01/21 02:00 CWBZ 210200Z AUTO 25005KT M22/M26 RMK AO1 SLP345 T12161256 53025
 
KFSO - Highgate, Vermont, USA
Distance from station: SE 79km
Updated: 01/20/2022 21:35 EST
Clear
Clear
 Wind from calm
Wind: Calm
Temperature: -24°C
Dew Point: -26°C
Humidity: 84%
Barometer: 1033.5 hPa
Clouds: Clear
Visibility: 16 km
2022/01/21 02:35 KFSO 210235Z AUTO 00000KT 10SM CLR M24/M26 A3052 RMK AO2 T12361260
CMGB - Granby, Quebec, Canada
Distance from station: E 81km
Updated: 01/20/2022 21:00 EST

 Wind from SW
Wind: SW 7 km/h
Temperature: -19°C
Wind Chill: -25°C
Dew Point: -23°C
Humidity: 71%
2022/01/21 02:00 CMGB 210200Z AUTO 22004KT M19/M23 RMK AO1 SOG 29 2025 SLP332 T11891233
 
CWJT - St Jovite (autob, Quebec, Canada
Distance from station: NW 88km
Updated: 01/20/2022 21:00 EST

 Wind from calm
Wind: Calm
Temperature: -27°C
Dew Point: -29°C
Humidity: 83%
2022/01/21 02:00 CWJT 210200Z AUTO 00000KT M27/M29 RMK AO1 SLP349 T12681291 53027
CWFQ - Frelighsburg, Quebec, Canada
Distance from station: ESE 90km
Updated: 01/20/2022 21:00 EST

 Wind from W
Wind: W 6 km/h
Temperature: -19°C
Dew Point: -23°C
Humidity: 71%
2022/01/21 02:00 CWFQ 210200Z AUTO 28003KT M19/M23 RMK AO1 SOG 22 1022 SLP323 T11861233
 
KPBG - Plattsburgh Afb, New York, USA
Distance from station: SSE 93km
Updated: 01/20/2022 20:53 EST
Clear
Clear
 Wind from SSW
Wind: SSW 6 km/h
Temperature: -23°C
Dew Point: -26°C
Humidity: 77%
Barometer: 1032.5 hPa
Clouds: Clear
Visibility: 16 km
2022/01/21 01:53 KPBG 210153Z AUTO 21003KT 10SM CLR M23/M26 A3049 RMK AO2 SLP333 T12281256
KMSS - Massena, New York, USA
Distance from station: SW 100km
Updated: 01/20/2022 20:53 EST
Clear
Clear
 Wind from calm
Wind: Calm
Temperature: -24°C
Dew Point: -28°C
Humidity: 70%
Barometer: 1034.9 hPa
Clouds: Clear
Visibility: 16 km
2022/01/21 01:53 KMSS 210153Z AUTO 00000KT 10SM CLR M24/M28 A3056 RMK AO2 SLP361 T12391283
 
CWBS - Lac St Pierre (a, Quebec, Canada
Distance from station: NE 106km
Updated: 01/20/2022 21:00 EST

 Wind from WNW
Wind: WNW 9 km/h
Temperature: -19°C
Wind Chill: -26°C
Dew Point: -23°C
Humidity: 71%
2022/01/21 02:00 CWBS 210200Z AUTO 30005KT M19/M23 RMK AO1 T11901231
KBTV - Burlington, Vermont, USA
Distance from station: SSE 121km
Updated: 01/20/2022 20:54 EST
Few Clouds
Few Clouds
 Wind from ESE
Wind: ESE 9 km/h
Temperature: -17°C
Wind Chill: -24°C
Dew Point: -22°C
Humidity: 65%
Barometer: 1032.5 hPa
Clouds: Few Clouds
Visibility: 16 km
Cloud details: Few Clouds 853 m
2022/01/21 01:54 KBTV 210154Z 12005KT 10SM FEW028 M17/M22 A3049 RMK AO2 SLP332 T11721222 $
 
KSLK - Saranac Lake, New York, USA
Distance from station: SSW 121km
Updated: 01/20/2022 21:51 EST
Clear
Clear
 Wind from calm
Wind: Calm
Temperature: -26°C
Dew Point: -29°C
Humidity: 76%
Barometer: 1027.8 hPa
Clouds: Clear
Visibility: 16 km
2022/01/21 02:51 KSLK 210251Z AUTO 00000KT 10SM CLR M26/M29 A3035 RMK AO2 SLP331 T12611289 51023
CWNQ - Nicolet (autob), Quebec, Canada
Distance from station: NE 123km
Updated: 01/20/2022 21:00 EST

 Wind from calm
Wind: Calm
Temperature: -24°C
Dew Point: -27°C
Humidity: 76%
2022/01/21 02:00 CWNQ 210200Z AUTO 00000KT M24/M27 RMK AO1 SLP330 T12421266 53029
 
KMWN - Mount Washington, New Hampshire, USA
Distance from station: SE 237km
Updated: 01/20/2022 20:59 EST

 Wind from WNW
Wind: WNW 50 km/h
Visibility: 128 km
2022/01/21 01:59 KMWN 210159Z 30027KT 80SM FEW/// FEW200 M21/M26 RMK TPS LWR FEW045
CYVR - Vancouver Intl A, British Columbia, Canada
Distance from station: NW 3676km
Updated: 01/20/2022 21:00 EST
Few Clouds
Few Clouds
 Wind from W
Wind: W 35 km/h
Temperature: 7°C
Wind Chill: 3°C
Dew Point: 6°C
Humidity: 93%
Barometer: 1024.7 hPa
Clouds: Few Clouds
Visibility: 24 km
Cloud details: Few Clouds 396 m
Few Clouds 2743 m
Few Clouds 5486 m
Few Clouds 6401 m
Few Clouds 7315 m
2022/01/21 02:00 CYVR 210200Z 27019KT 15SM FEW013 FEW090 FEW180 FEW210 FEW240 07/06 A3026 RMK CU1AC1AC1CI1CI2 CU TR AC TR AC TR CI TR SLP250